createdAt,value
2022-09-29T00:00:48.899Z,20.4000
2022-09-29T00:01:51.199Z,20.3900
2022-09-29T00:02:53.378Z,20.4000
2022-09-29T00:03:55.589Z,20.4000
2022-09-29T00:04:55.727Z,20.3600
2022-09-29T00:05:58.108Z,20.3700
2022-09-29T00:07:00.304Z,20.3800
2022-09-29T00:08:02.617Z,20.3700
2022-09-29T00:09:04.851Z,20.3600
2022-09-29T00:10:07.135Z,20.3500
2022-09-29T00:11:09.420Z,20.3500
2022-09-29T00:12:09.550Z,20.3700
2022-09-29T00:13:11.839Z,20.3800
2022-09-29T00:14:14.010Z,20.4000
2022-09-29T00:15:16.223Z,20.3900
2022-09-29T00:16:18.569Z,20.4000
2022-09-29T00:17:20.753Z,20.4200
2022-09-29T00:18:23.043Z,20.4000
2022-09-29T00:19:25.272Z,20.3700
2022-09-29T00:20:27.450Z,20.3900
2022-09-29T00:21:29.661Z,20.3900
2022-09-29T00:22:31.855Z,20.4000
2022-09-29T00:23:34.117Z,20.3800
2022-09-29T00:24:36.299Z,20.3900
2022-09-29T00:25:36.392Z,20.3900
2022-09-29T00:26:38.633Z,20.3700
2022-09-29T00:27:40.866Z,20.3600
2022-09-29T00:28:43.105Z,20.3600
2022-09-29T00:29:45.296Z,20.3600
2022-09-29T00:30:47.503Z,20.3500
2022-09-29T00:31:49.748Z,20.3800
2022-09-29T00:32:51.861Z,20.3600
2022-09-29T00:33:54.124Z,20.3600
2022-09-29T00:34:56.285Z,20.3500
2022-09-29T00:35:58.458Z,20.3500
2022-09-29T00:37:00.613Z,20.3500
2022-09-29T00:38:02.790Z,20.3600
2022-09-29T00:39:05.016Z,20.3700
2022-09-29T00:40:07.187Z,20.3800
2022-09-29T00:41:09.380Z,20.3800
2022-09-29T00:42:11.575Z,20.3800
2022-09-29T00:43:13.771Z,20.3400
2022-09-29T00:44:16.065Z,20.3500
2022-09-29T00:45:18.176Z,20.3400
2022-09-29T00:46:20.386Z,20.3500
2022-09-29T00:47:22.593Z,20.3300
2022-09-29T00:48:24.766Z,20.3300
2022-09-29T00:49:27.075Z,20.3100
2022-09-29T00:50:29.337Z,20.3200
2022-09-29T00:51:31.612Z,20.3600
2022-09-29T00:52:33.885Z,20.3600
2022-09-29T00:53:36.099Z,20.3400
2022-09-29T00:54:38.354Z,20.3400
2022-09-29T00:55:40.601Z,20.3700
2022-09-29T00:56:42.850Z,20.3300
2022-09-29T00:57:42.951Z,20.3500
2022-09-29T00:58:45.220Z,20.3500
2022-09-29T00:59:47.508Z,20.3500
2022-09-29T01:00:49.822Z,20.3500
2022-09-29T01:01:49.945Z,20.3400
2022-09-29T01:02:52.148Z,20.3200
2022-09-29T01:03:54.414Z,20.3500
2022-09-29T01:04:56.736Z,20.3300
2022-09-29T01:05:56.856Z,20.3100
2022-09-29T01:06:59.154Z,20.3200
2022-09-29T01:08:01.473Z,20.3000
2022-09-29T01:09:03.758Z,20.3000
2022-09-29T01:10:03.960Z,20.3100
2022-09-29T01:11:06.241Z,20.3000
2022-09-29T01:12:08.530Z,20.3200
2022-09-29T01:13:10.811Z,20.3200
2022-09-29T01:14:13.098Z,20.3100
2022-09-29T01:15:15.402Z,20.3100
2022-09-29T01:16:17.731Z,20.3300
2022-09-29T01:17:17.780Z,20.3200
2022-09-29T01:18:20.057Z,20.3000
2022-09-29T01:19:22.268Z,20.3300
2022-09-29T01:20:24.501Z,20.3400
2022-09-29T01:21:26.726Z,20.3400
2022-09-29T01:22:28.956Z,20.3100
2022-09-29T01:23:31.196Z,20.3100
2022-09-29T01:24:33.423Z,20.3000
2022-09-29T01:25:35.724Z,20.2900
2022-09-29T01:26:37.965Z,20.3000
2022-09-29T01:27:40.251Z,20.3100
2022-09-29T01:28:42.557Z,20.3000
2022-09-29T01:29:44.850Z,20.3300
2022-09-29T01:30:47.138Z,20.3400
2022-09-29T01:31:49.464Z,20.3200
2022-09-29T01:32:49.588Z,20.3000
2022-09-29T01:33:51.873Z,20.3100
2022-09-29T01:34:54.149Z,20.2900
2022-09-29T01:35:56.434Z,20.3000
2022-09-29T01:36:56.512Z,20.2800
2022-09-29T01:37:58.715Z,20.2800
2022-09-29T01:39:00.991Z,20.3000
2022-09-29T01:40:03.303Z,20.3100
2022-09-29T01:41:03.586Z,20.3000
2022-09-29T01:42:05.731Z,20.3000
2022-09-29T01:43:08.051Z,20.2800
2022-09-29T01:44:10.348Z,20.2700
2022-09-29T01:45:10.498Z,20.2800
2022-09-29T01:46:13.026Z,20.3000
2022-09-29T01:47:15.043Z,20.2900
2022-09-29T01:48:17.330Z,20.2800
2022-09-29T01:49:19.613Z,20.2900
2022-09-29T01:50:21.904Z,20.3000
2022-09-29T01:51:24.230Z,20.3100
2022-09-29T01:52:24.344Z,20.3000
2022-09-29T01:53:26.560Z,20.3100
2022-09-29T01:54:28.860Z,20.2900
2022-09-29T01:55:31.043Z,20.3000
2022-09-29T01:56:33.320Z,20.2700
2022-09-29T01:57:35.551Z,20.2900
2022-09-29T01:58:37.813Z,20.2700
2022-09-29T01:59:40.081Z,20.3000
2022-09-29T02:00:40.212Z,20.2900
2022-09-29T02:01:42.509Z,20.2900
2022-09-29T02:02:44.664Z,20.3000
2022-09-29T02:03:46.912Z,20.3200
2022-09-29T02:04:49.195Z,20.3000
2022-09-29T02:05:51.500Z,20.2800
2022-09-29T02:06:53.835Z,20.2700
2022-09-29T02:07:56.123Z,20.2600
2022-09-29T02:08:58.397Z,20.2900
2022-09-29T02:10:00.714Z,20.3000
2022-09-29T02:11:02.946Z,20.3100
2022-09-29T02:12:03.047Z,20.3200
2022-09-29T02:13:05.245Z,20.3200
2022-09-29T02:14:07.473Z,20.3100
2022-09-29T02:15:09.722Z,20.3000
2022-09-29T02:16:12.152Z,20.2900
2022-09-29T02:17:14.322Z,20.2800
2022-09-29T02:18:16.598Z,20.2700
2022-09-29T02:19:18.906Z,20.2500
2022-09-29T02:20:19.067Z,20.2600
2022-09-29T02:21:21.366Z,20.2500
2022-09-29T02:22:23.649Z,20.2400
2022-09-29T02:23:25.867Z,20.2300
2022-09-29T02:24:28.099Z,20.2700
2022-09-29T02:25:30.363Z,20.2500
2022-09-29T02:26:32.583Z,20.2400
2022-09-29T02:27:34.866Z,20.2400
2022-09-29T02:28:37.089Z,20.2600
2022-09-29T02:29:39.333Z,20.2400
2022-09-29T02:30:41.585Z,20.2300
2022-09-29T02:31:43.906Z,20.2300
2022-09-29T02:32:46.088Z,20.2400
2022-09-29T02:33:48.284Z,20.2600
2022-09-29T02:34:50.522Z,20.2900
2022-09-29T02:35:52.729Z,20.2700
2022-09-29T02:36:54.984Z,20.2500
2022-09-29T02:37:57.253Z,20.2600
2022-09-29T02:38:59.444Z,20.2500
2022-09-29T02:40:01.630Z,20.2600
2022-09-29T02:41:01.764Z,20.2800
2022-09-29T02:42:03.869Z,20.2700
2022-09-29T02:43:06.124Z,20.2600
2022-09-29T02:44:08.334Z,20.2700
2022-09-29T02:45:10.570Z,20.2400
2022-09-29T02:46:10.699Z,20.2300
2022-09-29T02:47:12.908Z,20.2300
2022-09-29T02:48:15.205Z,20.2100
2022-09-29T02:49:17.438Z,20.2300
2022-09-29T02:50:19.632Z,20.2200
2022-09-29T02:51:21.884Z,20.2600
2022-09-29T02:52:24.158Z,20.2400
2022-09-29T02:53:26.471Z,20.2400
2022-09-29T02:54:26.526Z,20.2500
2022-09-29T02:55:28.833Z,20.2400
2022-09-29T02:56:31.096Z,20.2400
2022-09-29T02:57:33.320Z,20.2200
2022-09-29T02:58:35.564Z,20.2300
2022-09-29T02:59:37.777Z,20.2400
2022-09-29T03:00:40.107Z,20.2400
2022-09-29T03:01:42.298Z,20.2400
2022-09-29T03:02:42.405Z,20.2200
2022-09-29T03:03:44.777Z,20.2100
2022-09-29T03:04:46.861Z,20.2200
2022-09-29T03:05:49.062Z,20.2100
2022-09-29T03:06:51.287Z,20.2200
2022-09-29T03:07:51.407Z,20.2200
2022-09-29T03:08:53.716Z,20.2200
2022-09-29T03:09:55.953Z,20.2100
2022-09-29T03:10:58.186Z,20.2100
2022-09-29T03:11:58.328Z,20.2200
2022-09-29T03:13:00.578Z,20.2300
2022-09-29T03:14:02.858Z,20.2200
2022-09-29T03:15:05.058Z,20.2000
2022-09-29T03:16:07.334Z,20.2100
2022-09-29T03:17:09.525Z,20.2000
2022-09-29T03:18:11.985Z,20.1900
2022-09-29T03:19:14.064Z,20.2100
2022-09-29T03:20:16.290Z,20.2100
2022-09-29T03:21:18.507Z,20.2100
2022-09-29T03:22:20.749Z,20.2000
2022-09-29T03:23:23.036Z,20.2300
2022-09-29T03:24:23.140Z,20.2200
2022-09-29T03:25:25.382Z,20.2000
2022-09-29T03:26:27.579Z,20.2000
2022-09-29T03:27:29.785Z,20.1900
2022-09-29T03:28:32.009Z,20.1700
2022-09-29T03:29:32.132Z,20.1700
2022-09-29T03:30:34.372Z,20.2200
2022-09-29T03:31:36.742Z,20.2000
2022-09-29T03:32:38.890Z,20.2200
2022-09-29T03:33:39.008Z,20.2100
2022-09-29T03:34:41.261Z,20.1900
2022-09-29T03:35:44.632Z,20.1800
2022-09-29T03:36:45.698Z,20.1700
2022-09-29T03:37:47.971Z,20.1800
2022-09-29T03:38:50.243Z,20.1800
2022-09-29T03:39:52.543Z,20.1800
2022-09-29T03:40:54.843Z,20.2000
2022-09-29T03:41:54.917Z,20.2000
2022-09-29T03:42:57.235Z,20.2000
2022-09-29T03:43:59.476Z,20.1900
2022-09-29T03:45:01.749Z,20.1900
2022-09-29T03:46:03.992Z,20.1800
2022-09-29T03:47:06.198Z,20.2000
2022-09-29T03:48:08.423Z,20.2000
2022-09-29T03:49:10.653Z,20.2200
2022-09-29T03:50:12.929Z,20.2000
2022-09-29T03:51:15.146Z,20.1900
2022-09-29T03:52:17.389Z,20.2000
2022-09-29T03:53:19.532Z,20.1900
2022-09-29T03:54:21.725Z,20.1800
2022-09-29T03:55:21.802Z,20.1800
2022-09-29T03:56:24.024Z,20.1900
2022-09-29T03:57:26.269Z,20.2000
2022-09-29T03:58:28.545Z,20.2000
2022-09-29T03:59:30.762Z,20.1900
2022-09-29T04:00:33.042Z,20.1600
2022-09-29T04:01:35.175Z,20.1800
2022-09-29T04:02:37.365Z,20.1800
2022-09-29T04:03:39.560Z,20.1800
2022-09-29T04:04:39.601Z,20.1900
2022-09-29T04:05:41.786Z,20.2000
2022-09-29T04:06:43.935Z,20.2000
2022-09-29T04:07:46.147Z,20.2100
2022-09-29T04:08:48.370Z,20.2000
2022-09-29T04:09:50.590Z,20.2100
2022-09-29T04:10:52.811Z,20.2000
2022-09-29T04:11:55.020Z,20.1800
2022-09-29T04:12:57.179Z,20.1700
2022-09-29T04:13:59.400Z,20.1900
2022-09-29T04:15:01.581Z,20.1800
2022-09-29T04:16:03.913Z,20.1900
2022-09-29T04:17:06.042Z,20.1900
2022-09-29T04:18:08.274Z,20.1900
2022-09-29T04:20:34.377Z,20.3300
2022-09-29T04:21:36.611Z,20.4000
2022-09-29T04:22:38.854Z,20.4300
2022-09-29T04:23:41.090Z,20.4700
2022-09-29T04:24:43.361Z,20.4500
2022-09-29T04:25:45.597Z,20.4500
2022-09-29T04:26:47.835Z,20.4400
2022-09-29T04:27:50.062Z,20.4600
2022-09-29T04:28:50.196Z,20.4800
2022-09-29T04:29:52.466Z,20.4900
2022-09-29T04:30:54.738Z,20.5100
2022-09-29T04:31:57.099Z,20.5000
2022-09-29T04:32:59.255Z,20.5200
2022-09-29T04:34:01.498Z,20.5200
2022-09-29T04:35:03.737Z,20.5200
2022-09-29T04:36:06.009Z,20.5200
2022-09-29T04:37:08.261Z,20.5200
2022-09-29T04:38:08.296Z,20.5200
2022-09-29T04:39:10.512Z,20.5000
2022-09-29T04:40:12.715Z,20.5200
2022-09-29T04:41:14.916Z,20.5000
2022-09-29T04:42:17.143Z,20.5000
2022-09-29T04:43:19.325Z,20.5000
2022-09-29T04:44:21.513Z,20.4700
2022-09-29T04:45:23.717Z,20.4800
2022-09-29T04:46:25.895Z,20.4800
2022-09-29T04:47:28.076Z,20.4800
2022-09-29T04:48:34.893Z,20.4900
2022-09-29T04:49:32.375Z,20.4900
2022-09-29T04:50:34.581Z,20.4900
2022-09-29T04:51:36.805Z,20.4900
2022-09-29T04:52:39.032Z,20.4800
2022-09-29T04:53:41.121Z,20.4900
2022-09-29T04:54:42.256Z,20.5000
2022-09-29T04:55:43.489Z,20.4900
2022-09-29T04:56:45.697Z,20.4900
2022-09-29T04:57:47.990Z,20.4600
2022-09-29T04:58:50.195Z,20.4500
2022-09-29T04:59:52.435Z,20.5000
2022-09-29T05:00:54.745Z,20.5300
2022-09-29T05:01:56.963Z,20.5200
2022-09-29T05:02:57.069Z,20.5500
2022-09-29T05:03:59.291Z,20.5400
2022-09-29T05:05:01.525Z,20.5200
2022-09-29T05:06:03.792Z,20.5300
2022-09-29T05:07:06.065Z,20.5200
2022-09-29T05:08:08.381Z,20.5200
2022-09-29T05:09:10.613Z,20.5200
2022-09-29T05:10:12.884Z,20.5200
2022-09-29T05:11:12.987Z,20.5100
2022-09-29T05:12:15.224Z,20.4800
2022-09-29T05:13:17.504Z,20.4700
2022-09-29T05:14:19.686Z,20.4600
2022-09-29T05:15:25.715Z,20.4700
2022-09-29T05:16:24.212Z,20.4600
2022-09-29T05:17:26.360Z,20.4600
2022-09-29T05:18:28.632Z,20.4300
2022-09-29T05:19:30.888Z,20.4500
2022-09-29T05:20:41.775Z,20.4500
2022-09-29T05:21:35.371Z,20.4400
2022-09-29T05:22:35.471Z,20.4500
2022-09-29T05:23:37.688Z,20.4500
2022-09-29T05:24:39.889Z,20.4400
2022-09-29T05:25:42.127Z,20.4700
2022-09-29T05:26:44.381Z,20.4600
2022-09-29T05:27:46.663Z,20.4500
2022-09-29T05:28:48.869Z,20.4400
2022-09-29T05:29:51.037Z,20.4500
2022-09-29T05:30:53.221Z,20.4600
2022-09-29T05:31:55.527Z,20.4700
2022-09-29T05:32:59.087Z,20.4600
2022-09-29T05:33:59.880Z,20.4500
2022-09-29T05:34:59.969Z,20.4600
2022-09-29T05:36:02.218Z,20.4400
2022-09-29T05:37:04.470Z,20.4500
2022-09-29T05:38:06.701Z,20.4400
2022-09-29T05:39:08.948Z,20.4700
2022-09-29T05:40:11.153Z,20.5000
2022-09-29T05:41:13.381Z,20.4600
2022-09-29T05:42:15.645Z,20.4500
2022-09-29T05:43:17.905Z,20.4700
2022-09-29T05:44:20.196Z,20.4500
2022-09-29T05:45:20.271Z,20.4700
2022-09-29T05:46:22.511Z,20.4600
2022-09-29T05:47:24.754Z,20.4600
2022-09-29T05:48:26.947Z,20.4500
2022-09-29T05:49:29.195Z,20.4400
2022-09-29T05:50:31.379Z,20.4700
2022-09-29T05:51:33.534Z,20.4800
2022-09-29T05:52:35.826Z,20.4500
2022-09-29T05:53:38.123Z,20.4500
2022-09-29T05:54:40.409Z,20.4600
2022-09-29T05:56:23.615Z,20.4300
2022-09-29T05:57:25.812Z,20.4400
2022-09-29T05:58:28.023Z,20.4500
2022-09-29T05:59:30.218Z,20.4400
2022-09-29T06:00:32.424Z,20.4600
2022-09-29T06:01:34.595Z,20.4600
2022-09-29T06:02:36.854Z,20.4400
2022-09-29T06:03:36.711Z,20.4300
2022-09-29T06:04:40.963Z,20.4300
2022-09-29T06:05:41.155Z,20.4300
2022-09-29T06:06:43.314Z,20.4300
2022-09-29T06:07:45.513Z,20.4300
2022-09-29T06:08:47.704Z,20.4300
2022-09-29T06:09:49.910Z,20.4300
2022-09-29T06:10:52.124Z,20.4200
2022-09-29T06:11:54.293Z,20.4400
2022-09-29T06:12:56.491Z,20.4300
2022-09-29T06:13:58.700Z,20.4300
2022-09-29T06:15:00.882Z,20.4300
2022-09-29T06:16:03.225Z,20.4100
2022-09-29T06:17:05.291Z,20.4000
2022-09-29T06:18:07.498Z,20.4200
2022-09-29T06:19:07.500Z,20.4200
2022-09-29T06:20:09.681Z,20.4700
2022-09-29T06:21:11.923Z,20.4800
2022-09-29T06:22:14.112Z,20.4600
2022-09-29T06:23:16.327Z,20.4800
2022-09-29T06:24:18.574Z,20.4700
2022-09-29T06:25:20.806Z,20.4800
2022-09-29T06:26:24.504Z,20.4700
2022-09-29T06:27:25.274Z,20.4500
2022-09-29T06:28:27.505Z,20.4500
2022-09-29T06:29:29.723Z,20.4400
2022-09-29T06:30:31.993Z,20.4300
2022-09-29T06:31:32.188Z,20.4600
2022-09-29T06:32:34.281Z,20.4700
2022-09-29T06:33:36.555Z,20.4600
2022-09-29T06:34:38.817Z,20.4800
2022-09-29T06:35:41.100Z,20.5100
2022-09-29T06:36:43.431Z,20.5100
2022-09-29T06:37:45.702Z,20.4900
2022-09-29T06:38:47.975Z,20.5100
2022-09-29T06:39:50.205Z,20.5000
2022-09-29T06:40:50.335Z,20.4900
2022-09-29T06:41:52.608Z,20.4800
2022-09-29T06:42:54.875Z,20.4800
2022-09-29T06:43:57.162Z,20.4900
2022-09-29T06:44:59.379Z,20.4900
2022-09-29T06:46:01.684Z,20.5000
2022-09-29T06:47:03.838Z,20.4800
2022-09-29T06:48:06.018Z,20.4500
2022-09-29T06:49:08.211Z,20.4600
2022-09-29T06:50:12.330Z,20.4600
2022-09-29T06:51:12.605Z,20.4500
2022-09-29T06:52:21.117Z,20.4800
2022-09-29T06:53:14.856Z,20.4800
2022-09-29T06:54:17.098Z,20.4700
2022-09-29T06:55:19.303Z,20.5000
2022-09-29T06:56:21.488Z,20.4900
2022-09-29T06:57:23.742Z,20.4900
2022-09-29T06:58:25.895Z,20.5100
2022-09-29T06:59:28.111Z,20.4900
2022-09-29T07:00:30.355Z,20.5000
2022-09-29T07:01:32.765Z,20.4800
2022-09-29T07:02:34.933Z,20.4900
2022-09-29T07:03:36.973Z,20.4900
2022-09-29T07:04:39.433Z,20.4600
2022-09-29T07:05:43.722Z,20.4900
2022-09-29T07:06:41.506Z,20.4700
2022-09-29T07:07:48.858Z,20.4700
2022-09-29T07:08:39.525Z,20.4700
2022-09-29T07:09:41.733Z,20.4900
2022-09-29T07:10:43.930Z,20.5200
2022-09-29T07:11:46.170Z,20.5100
2022-09-29T07:12:48.439Z,20.5300
2022-09-29T07:13:54.190Z,20.5300
2022-09-29T07:14:52.881Z,20.5200
2022-09-29T07:15:55.131Z,20.5000
2022-09-29T07:16:55.301Z,20.4900
2022-09-29T07:17:57.433Z,20.5100
2022-09-29T07:18:59.572Z,20.5200
2022-09-29T07:20:01.839Z,20.5100
2022-09-29T07:21:03.987Z,20.5100
2022-09-29T07:22:06.202Z,20.5200
2022-09-29T07:23:08.452Z,20.5300
2022-09-29T07:24:10.650Z,20.5200
2022-09-29T07:25:23.009Z,20.5300
2022-09-29T07:26:15.098Z,20.5400
2022-09-29T07:27:17.323Z,20.5200
2022-09-29T07:28:19.607Z,20.5300
2022-09-29T07:29:22.138Z,20.5400
2022-09-29T07:30:35.392Z,20.5400
2022-09-29T07:31:24.230Z,20.5000
2022-09-29T07:32:28.401Z,20.5100
2022-09-29T07:33:38.660Z,20.5200
2022-09-29T07:34:30.920Z,20.5300
2022-09-29T07:35:36.300Z,20.5300
2022-09-29T07:36:35.453Z,20.5500
2022-09-29T07:37:37.704Z,20.5500
2022-09-29T07:38:37.871Z,20.5500
2022-09-29T07:39:37.999Z,20.5300
2022-09-29T07:40:40.339Z,20.5300
2022-09-29T07:41:42.559Z,20.5200
2022-09-29T07:42:44.809Z,20.5300
2022-09-29T07:43:47.126Z,20.5100
2022-09-29T07:44:52.323Z,20.5300
2022-09-29T07:45:49.639Z,20.5300
2022-09-29T07:46:51.855Z,20.5600
2022-09-29T07:47:54.129Z,20.5500
2022-09-29T07:48:56.464Z,20.5400
2022-09-29T07:49:57.621Z,20.5700
2022-09-29T07:50:20.313Z,20.5300
2022-09-29T07:51:22.588Z,20.5200
2022-09-29T07:52:24.895Z,20.5300
2022-09-29T07:53:27.217Z,20.5200
2022-09-29T07:54:30.046Z,20.5500
2022-09-29T07:55:31.734Z,20.5700
2022-09-29T07:56:31.911Z,20.5700
2022-09-29T07:57:34.236Z,20.5900
2022-09-29T07:58:36.525Z,20.6000
2022-09-29T07:59:45.864Z,20.5900
2022-09-29T08:00:41.206Z,20.5800
2022-09-29T08:01:43.389Z,20.5700
2022-09-29T08:02:45.701Z,20.5900
2022-09-29T08:03:45.876Z,20.6100
2022-09-29T08:04:48.214Z,20.6000
2022-09-29T08:05:50.500Z,20.6000
2022-09-29T08:06:52.849Z,20.6200
2022-09-29T08:07:55.129Z,20.6000
2022-09-29T08:09:03.599Z,20.6000
2022-09-29T08:10:04.927Z,20.5900
2022-09-29T08:10:59.899Z,20.5700
2022-09-29T08:12:07.779Z,20.5800
2022-09-29T08:13:04.372Z,20.5700
2022-09-29T08:14:06.618Z,20.6000
2022-09-29T08:15:08.873Z,20.6600
2022-09-29T08:16:11.159Z,20.6800
2022-09-29T08:17:11.203Z,20.6600
2022-09-29T08:18:13.445Z,20.5900
2022-09-29T08:19:15.660Z,20.6400
2022-09-29T08:20:17.936Z,20.6500
2022-09-29T08:21:18.013Z,20.6500
2022-09-29T08:22:20.280Z,20.6500
2022-09-29T08:23:22.461Z,20.6500
2022-09-29T08:24:24.688Z,20.6200
2022-09-29T08:25:26.927Z,20.6400
2022-09-29T08:26:39.422Z,20.6300
2022-09-29T08:27:31.393Z,20.6400
2022-09-29T08:28:33.622Z,20.6500
2022-09-29T08:29:45.241Z,20.6600
2022-09-29T08:30:38.165Z,20.6400
2022-09-29T08:31:40.399Z,20.6500
2022-09-29T08:32:42.545Z,20.6600
2022-09-29T08:33:42.638Z,20.6800
2022-09-29T08:34:44.903Z,20.7100
2022-09-29T08:35:47.212Z,20.7000
2022-09-29T08:36:49.422Z,20.7000
2022-09-29T08:37:51.691Z,20.6900
2022-09-29T08:38:53.871Z,20.6800
2022-09-29T08:39:56.080Z,20.7100
2022-09-29T08:40:58.460Z,20.7100
2022-09-29T08:42:00.607Z,20.7100
2022-09-29T08:43:02.897Z,20.6900
2022-09-29T08:44:03.022Z,20.7000
2022-09-29T08:45:15.404Z,20.6800
2022-09-29T08:46:07.719Z,20.6900
2022-09-29T08:47:11.179Z,20.7100
2022-09-29T08:48:21.664Z,20.7600
2022-09-29T08:49:24.776Z,20.7600
2022-09-29T08:50:16.861Z,20.7200
2022-09-29T08:51:19.167Z,20.7400
2022-09-29T08:52:21.417Z,20.7400
2022-09-29T08:53:28.283Z,20.7300
2022-09-29T08:54:36.272Z,20.7100
2022-09-29T08:55:26.124Z,20.7100
2022-09-29T08:56:28.433Z,20.7300
2022-09-29T08:57:30.724Z,20.7500
2022-09-29T08:58:33.053Z,20.7300
2022-09-29T08:59:33.189Z,20.7400
2022-09-29T09:00:35.431Z,20.7700
2022-09-29T09:01:37.920Z,20.7700
2022-09-29T09:02:40.108Z,20.7600
2022-09-29T09:03:42.333Z,20.7700
2022-09-29T09:04:44.594Z,20.7900
2022-09-29T09:05:46.859Z,20.8100
2022-09-29T09:06:46.982Z,20.8000
2022-09-29T09:07:49.213Z,20.8100
2022-09-29T09:08:51.545Z,20.7900
2022-09-29T09:09:53.736Z,20.8300
2022-09-29T09:10:55.989Z,20.8400
2022-09-29T09:11:58.280Z,20.8400
2022-09-29T09:13:00.525Z,20.8400
2022-09-29T09:14:02.796Z,20.8500
2022-09-29T09:15:02.894Z,20.8300
2022-09-29T09:16:05.183Z,20.8200
2022-09-29T09:17:07.527Z,20.8300
2022-09-29T09:18:09.816Z,20.8500
2022-09-29T09:19:12.150Z,20.8700
2022-09-29T09:20:14.477Z,20.8800
2022-09-29T09:21:16.800Z,20.8800
2022-09-29T09:22:16.965Z,20.8700
2022-09-29T09:23:19.275Z,20.9100
2022-09-29T09:24:24.922Z,20.9200
2022-09-29T09:25:23.868Z,20.9000
2022-09-29T09:26:26.168Z,20.9000
2022-09-29T09:27:28.479Z,20.9200
2022-09-29T09:28:30.723Z,20.9400
2022-09-29T09:29:36.572Z,20.9100
2022-09-29T09:30:33.214Z,20.8800
2022-09-29T09:31:35.416Z,20.9200
2022-09-29T09:32:37.718Z,20.9500
2022-09-29T09:33:39.975Z,20.9400
2022-09-29T09:34:44.657Z,20.9600
2022-09-29T09:35:51.963Z,20.9800
2022-09-29T09:36:44.534Z,20.9900
2022-09-29T09:37:46.839Z,21.0000
2022-09-29T09:38:49.074Z,20.9800
2022-09-29T09:39:51.335Z,21.0000
2022-09-29T09:40:53.551Z,20.9900
2022-09-29T09:41:55.840Z,21.0100
2022-09-29T09:42:58.168Z,21.0300
2022-09-29T09:43:58.317Z,21.0200
2022-09-29T09:45:00.593Z,21.0100
2022-09-29T09:46:02.995Z,21.0300
2022-09-29T09:47:05.161Z,21.0600
2022-09-29T09:48:07.481Z,21.0600
2022-09-29T09:49:09.719Z,21.0600
2022-09-29T09:50:11.974Z,21.0300
2022-09-29T09:51:14.242Z,21.0100
2022-09-29T09:52:14.347Z,21.0100
2022-09-29T09:53:16.629Z,21.0200
2022-09-29T09:54:18.861Z,21.0500
2022-09-29T09:55:21.079Z,21.0800
2022-09-29T09:56:23.297Z,21.1000
2022-09-29T09:57:25.500Z,21.0700
2022-09-29T09:58:27.739Z,21.1100
2022-09-29T09:59:29.962Z,21.0900
2022-09-29T10:00:32.221Z,21.0900
2022-09-29T10:01:34.603Z,21.1100
2022-09-29T10:02:34.730Z,21.1000
2022-09-29T10:03:36.900Z,21.1100
2022-09-29T10:04:39.181Z,21.1400
2022-09-29T10:05:41.471Z,21.1200
2022-09-29T10:06:41.604Z,21.1300
2022-09-29T10:07:43.925Z,21.1200
2022-09-29T10:08:46.217Z,21.1200
2022-09-29T10:09:46.345Z,21.1000
2022-09-29T10:10:58.143Z,21.1200
2022-09-29T10:11:50.860Z,21.1200
2022-09-29T10:12:56.568Z,21.1600
2022-09-29T10:13:55.556Z,21.1300
2022-09-29T10:14:57.694Z,21.1600
2022-09-29T10:15:57.797Z,21.1400
2022-09-29T10:17:00.183Z,21.1200
2022-09-29T10:18:02.386Z,21.1400
2022-09-29T10:19:04.723Z,21.1700
2022-09-29T10:20:06.936Z,21.1800
2022-09-29T10:21:09.187Z,21.1700
2022-09-29T10:22:11.513Z,21.2100
2022-09-29T10:23:13.706Z,21.2400
2022-09-29T10:24:16.042Z,21.2500
2022-09-29T10:25:16.066Z,21.2700
2022-09-29T10:26:18.327Z,21.3200
2022-09-29T10:27:22.711Z,21.2800
2022-09-29T10:28:22.861Z,21.3300
2022-09-29T10:28:59.390Z,21.3500
2022-09-29T10:29:59.546Z,21.3900
2022-09-29T10:31:03.974Z,21.4200
2022-09-29T10:32:06.215Z,21.4100
2022-09-29T10:33:10.589Z,21.3900
2022-09-29T10:34:10.794Z,21.4000
2022-09-29T10:35:13.119Z,21.4200
2022-09-29T10:36:13.219Z,21.4300
2022-09-29T10:37:15.520Z,21.4500
2022-09-29T10:38:17.796Z,21.4700
2022-09-29T10:39:20.065Z,21.4700
2022-09-29T10:40:22.366Z,21.4800
2022-09-29T10:41:24.602Z,21.4900
2022-09-29T10:42:26.798Z,21.5000
2022-09-29T10:43:29.027Z,21.4900
2022-09-29T10:44:29.103Z,21.4900
2022-09-29T10:45:31.347Z,21.5000
2022-09-29T10:46:33.546Z,21.5000
2022-09-29T10:47:35.801Z,21.5000
2022-09-29T10:48:38.044Z,21.5100
2022-09-29T10:49:40.332Z,21.5300
2022-09-29T10:50:42.675Z,21.5100
2022-09-29T10:51:44.919Z,21.5100
2022-09-29T10:52:47.204Z,21.4900
2022-09-29T10:53:47.350Z,21.5000
2022-09-29T10:54:49.625Z,21.5100
2022-09-29T10:55:51.963Z,21.5100
2022-09-29T10:56:54.183Z,21.5100
2022-09-29T10:57:56.399Z,21.4900
2022-09-29T10:59:04.427Z,21.5000
2022-09-29T11:00:03.060Z,21.4900
2022-09-29T11:01:03.220Z,21.4800
2022-09-29T11:02:03.335Z,21.5100
2022-09-29T11:03:05.507Z,21.4900
2022-09-29T11:04:07.781Z,21.4700
2022-09-29T11:05:10.045Z,21.4900
2022-09-29T11:06:12.291Z,21.4700
2022-09-29T11:07:14.529Z,21.4200
2022-09-29T11:08:14.639Z,21.4100
2022-09-29T11:09:17.037Z,21.3900
2022-09-29T11:10:19.156Z,21.4400
2022-09-29T11:11:21.446Z,21.4100
2022-09-29T11:12:23.727Z,21.3800
2022-09-29T11:13:25.937Z,21.3900
2022-09-29T11:14:28.207Z,21.4100
2022-09-29T11:15:30.477Z,21.4200
2022-09-29T11:16:32.853Z,21.4300
2022-09-29T11:17:32.840Z,21.4400
2022-09-29T11:18:35.107Z,21.4300
2022-09-29T11:19:37.486Z,21.4600
2022-09-29T11:20:39.628Z,21.4600
2022-09-29T11:21:41.920Z,21.4800
2022-09-29T11:22:44.144Z,21.4700
2022-09-29T11:23:46.416Z,21.5000
2022-09-29T11:24:48.679Z,21.4800
2022-09-29T11:25:50.939Z,21.4600
2022-09-29T11:26:51.039Z,21.4500
2022-09-29T11:27:53.292Z,21.4600
2022-09-29T11:28:55.562Z,21.4900
2022-09-29T11:29:57.821Z,21.5100
2022-09-29T11:31:00.191Z,21.5400
2022-09-29T11:32:02.448Z,21.5300
2022-09-29T11:33:04.696Z,21.5300
2022-09-29T11:35:12.498Z,21.5100
2022-09-29T11:37:13.779Z,21.5700
2022-09-29T11:38:16.008Z,21.5900
2022-09-29T11:39:18.310Z,21.5800
2022-09-29T11:40:18.349Z,21.5700
2022-09-29T11:41:20.609Z,21.6000
2022-09-29T11:42:22.853Z,21.6200
2022-09-29T11:43:25.168Z,21.6300
2022-09-29T11:44:27.355Z,21.6500
2022-09-29T11:45:29.556Z,21.6800
2022-09-29T11:46:31.752Z,21.7100
2022-09-29T11:47:33.995Z,21.7500
2022-09-29T11:48:36.168Z,21.7900
2022-09-29T11:49:38.393Z,21.8200
2022-09-29T11:50:40.592Z,21.8200
2022-09-29T11:51:42.828Z,21.8100
2022-09-29T11:52:42.966Z,21.8400
2022-09-29T11:53:45.163Z,21.8300
2022-09-29T11:54:47.399Z,21.8200
2022-09-29T11:55:49.629Z,21.8200
2022-09-29T11:56:51.838Z,21.8500
2022-09-29T11:57:54.086Z,21.8500
2022-09-29T11:58:56.249Z,21.8800
2022-09-29T11:59:58.451Z,21.8900
2022-09-29T12:01:00.615Z,21.9000
2022-09-29T12:02:02.911Z,21.9200
2022-09-29T12:03:05.244Z,21.9500
2022-09-29T12:04:09.945Z,21.9600
2022-09-29T12:05:09.602Z,21.9700
2022-09-29T12:06:09.695Z,21.9800
2022-09-29T12:07:11.946Z,21.9600
2022-09-29T12:08:14.263Z,21.9700
2022-09-29T12:09:16.629Z,21.9700
2022-09-29T12:10:22.309Z,21.9900
2022-09-29T12:11:44.289Z,22.0100
2022-09-29T12:12:24.600Z,22.0100
2022-09-29T12:13:25.393Z,22.0300
2022-09-29T12:14:27.537Z,22.0200
2022-09-29T12:15:29.705Z,22.0500
2022-09-29T12:16:31.914Z,22.0600
2022-09-29T12:17:34.078Z,22.0600
2022-09-29T12:18:36.311Z,22.0500
2022-09-29T12:19:36.402Z,22.0600
2022-09-29T12:20:38.640Z,22.0500
2022-09-29T12:21:40.944Z,22.0400
2022-09-29T12:22:44.952Z,22.0400
2022-09-29T12:23:45.492Z,22.0000
2022-09-29T12:24:47.695Z,22.0000
2022-09-29T12:25:49.949Z,22.0100
2022-09-29T12:26:52.219Z,21.9800
2022-09-29T12:27:54.486Z,21.9700
2022-09-29T12:28:54.625Z,22.0000
2022-09-29T12:29:56.891Z,22.0000
2022-09-29T12:30:59.168Z,22.0100
2022-09-29T12:32:01.391Z,22.0000
2022-09-29T12:33:03.648Z,22.0100